Fort Nelson Airport, British Columbia

Past 24 Hour Conditions

This table is a summary of hourly weather conditions for the past 24 hours. This summary includes the following parameters: temperature, humidity, dew point, wind speed and direction, air pressure, visibility and/or wind chill and humidex.
Date / Time
(PDT)
Conditions Temp (°F) Humidity (%) Dew Point (°F) Wind (mph) Pressure (inches) Visibility (miles)
02 September 2014
14:00 Mostly Cloudy 64   53 46 W 7 29.8 30
13:00 Mostly Cloudy 62 59 47 WNW 4 29.8 30
12:00 Mostly Cloudy 58 73 50 W 7 29.9 30
11:00 Mostly Cloudy 58 70 48 WNW 5 29.9 30
10:00 Mostly Cloudy 55 80 49 N 2 29.9 20
9:00 Mostly Cloudy 53 87 49 WNW 3 29.8 20
8:00 Mostly Cloudy 49 96 48 WSW 3 29.8 20
7:00 Mostly Cloudy 48   97 47 N 2 29.8 30
6:00 Mostly Cloudy 48   97 48 N 2 29.8 15
5:00 Mostly Cloudy 49 92 47 WSW 3 29.8 15
4:00 Mostly Cloudy 48   96 46 SW 3 29.8 15
3:00 Partly Cloudy 48   94 47 N 2 29.8 15
2:00 Light Rain 50 93 48 calm 29.8 15
1:00 Mostly Cloudy 51 85 47 NW 3 29.7 15
00:00 Mostly Cloudy 52 83 47 NW 6 29.7 15
01 September 2014
23:00 Partly Cloudy 51 87 47 WNW 2 29.7 15
22:00 Mostly Cloudy 51 85 47 NW 2 29.7 15
21:00 Mostly Cloudy 58 64 46 ENE 5 29.7 15
20:00 Mostly Cloudy 59 62 46 NNE 3 29.7 20
19:00 Mostly Cloudy 61 56 45 NNE 4 29.7 20
18:00 Mostly Cloudy 62 48 43 NNE 5 29.7 20
17:00 Mostly Cloudy 63 56 47 NNW 4 29.7 20
16:00 Mostly Cloudy 64   48 44 S 2 29.7 20
15:00 Mostly Cloudy 64   48 44 SSE 4 29.7 30
14:00 Mostly Cloudy 63 49 44 S 6 29.7 30
N/A
Not available
 ↑ 
Highest temperature
 ↓ 
Lowest temperature

If you require additional historical weather information, please visit Climate Data Online.